sensor_id;sensor_type;location;lat;lon;timestamp;P1;durP1;ratioP1;P2;durP2;ratioP2
21507;SDS011;10915;54.352;9.074;2023-04-25T00:01:04;23.37;;;6.20;;
21507;SDS011;10915;54.352;9.074;2023-04-25T00:03:31;23.13;;;5.53;;
21507;SDS011;10915;54.352;9.074;2023-04-25T00:06:00;16.17;;;5.43;;
21507;SDS011;10915;54.352;9.074;2023-04-25T00:08:28;17.33;;;4.63;;
21507;SDS011;10915;54.352;9.074;2023-04-25T00:10:55;15.10;;;4.40;;
21507;SDS011;10915;54.352;9.074;2023-04-25T00:13:22;19.70;;;5.73;;
21507;SDS011;10915;54.352;9.074;2023-04-25T00:15:47;18.53;;;5.50;;
21507;SDS011;10915;54.352;9.074;2023-04-25T00:18:14;17.80;;;5.27;;
21507;SDS011;10915;54.352;9.074;2023-04-25T00:20:40;18.80;;;4.90;;
21507;SDS011;10915;54.352;9.074;2023-04-25T00:23:09;19.87;;;5.40;;
21507;SDS011;10915;54.352;9.074;2023-04-25T00:25:35;22.73;;;5.20;;
21507;SDS011;10915;54.352;9.074;2023-04-25T00:28:01;22.23;;;6.00;;
21507;SDS011;10915;54.352;9.074;2023-04-25T00:30:26;23.03;;;6.60;;
21507;SDS011;10915;54.352;9.074;2023-04-25T00:32:52;22.40;;;5.63;;
21507;SDS011;10915;54.352;9.074;2023-04-25T00:35:18;22.20;;;5.70;;
21507;SDS011;10915;54.352;9.074;2023-04-25T00:37:43;24.63;;;5.80;;
21507;SDS011;10915;54.352;9.074;2023-04-25T00:40:10;16.47;;;5.10;;
21507;SDS011;10915;54.352;9.074;2023-04-25T00:42:36;16.40;;;5.10;;
21507;SDS011;10915;54.352;9.074;2023-04-25T00:45:04;16.47;;;5.27;;
21507;SDS011;10915;54.352;9.074;2023-04-25T00:47:32;17.23;;;5.13;;
21507;SDS011;10915;54.352;9.074;2023-04-25T00:49:58;16.17;;;4.57;;
21507;SDS011;10915;54.352;9.074;2023-04-25T00:52:23;24.27;;;6.23;;
21507;SDS011;10915;54.352;9.074;2023-04-25T00:54:49;21.13;;;5.30;;
21507;SDS011;10915;54.352;9.074;2023-04-25T00:57:15;17.70;;;5.40;;
21507;SDS011;10915;54.352;9.074;2023-04-25T00:59:41;26.00;;;5.70;;
21507;SDS011;10915;54.352;9.074;2023-04-25T01:02:10;15.40;;;4.90;;
21507;SDS011;10915;54.352;9.074;2023-04-25T01:04:36;21.80;;;5.97;;
21507;SDS011;10915;54.352;9.074;2023-04-25T01:07:02;21.80;;;6.17;;
21507;SDS011;10915;54.352;9.074;2023-04-25T01:09:29;22.00;;;5.20;;
21507;SDS011;10915;54.352;9.074;2023-04-25T01:11:57;20.23;;;5.23;;
21507;SDS011;10915;54.352;9.074;2023-04-25T01:14:23;21.87;;;5.30;;
21507;SDS011;10915;54.352;9.074;2023-04-25T01:16:48;20.33;;;5.47;;
21507;SDS011;10915;54.352;9.074;2023-04-25T01:19:16;21.77;;;5.80;;
21507;SDS011;10915;54.352;9.074;2023-04-25T01:21:43;19.97;;;5.20;;
21507;SDS011;10915;54.352;9.074;2023-04-25T01:24:08;17.70;;;5.03;;
21507;SDS011;10915;54.352;9.074;2023-04-25T01:26:34;22.63;;;5.77;;
21507;SDS011;10915;54.352;9.074;2023-04-25T01:29:00;16.23;;;5.27;;
21507;SDS011;10915;54.352;9.074;2023-04-25T01:31:28;15.07;;;4.60;;
21507;SDS011;10915;54.352;9.074;2023-04-25T01:33:54;10.37;;;4.50;;
21507;SDS011;10915;54.352;9.074;2023-04-25T01:36:20;16.47;;;5.33;;
21507;SDS011;10915;54.352;9.074;2023-04-25T01:38:47;20.20;;;4.73;;
21507;SDS011;10915;54.352;9.074;2023-04-25T01:41:13;17.00;;;4.70;;
21507;SDS011;10915;54.352;9.074;2023-04-25T01:43:39;14.40;;;4.87;;
21507;SDS011;10915;54.352;9.074;2023-04-25T01:46:05;19.00;;;5.33;;
21507;SDS011;10915;54.352;9.074;2023-04-25T01:48:31;21.43;;;5.63;;
21507;SDS011;10915;54.352;9.074;2023-04-25T01:50:57;17.53;;;4.80;;
21507;SDS011;10915;54.352;9.074;2023-04-25T01:53:23;17.80;;;4.50;;
21507;SDS011;10915;54.352;9.074;2023-04-25T01:55:50;16.10;;;4.57;;
21507;SDS011;10915;54.352;9.074;2023-04-25T01:58:15;15.40;;;4.70;;
21507;SDS011;10915;54.352;9.074;2023-04-25T02:00:41;16.77;;;5.23;;
21507;SDS011;10915;54.352;9.074;2023-04-25T02:03:06;16.30;;;5.10;;
21507;SDS011;10915;54.352;9.074;2023-04-25T02:05:36;21.70;;;5.63;;
21507;SDS011;10915;54.352;9.074;2023-04-25T02:08:04;18.40;;;5.60;;
21507;SDS011;10915;54.352;9.074;2023-04-25T02:10:30;16.63;;;4.43;;
21507;SDS011;10915;54.352;9.074;2023-04-25T02:12:57;20.70;;;5.40;;
21507;SDS011;10915;54.352;9.074;2023-04-25T02:15:23;20.93;;;5.60;;
21507;SDS011;10915;54.352;9.074;2023-04-25T02:17:49;17.67;;;4.63;;
21507;SDS011;10915;54.352;9.074;2023-04-25T02:20:15;16.47;;;4.90;;
21507;SDS011;10915;54.352;9.074;2023-04-25T02:22:44;18.93;;;4.70;;
21507;SDS011;10915;54.352;9.074;2023-04-25T02:25:10;16.27;;;5.47;;
21507;SDS011;10915;54.352;9.074;2023-04-25T02:27:37;22.10;;;5.47;;
21507;SDS011;10915;54.352;9.074;2023-04-25T02:30:03;23.83;;;4.77;;
21507;SDS011;10915;54.352;9.074;2023-04-25T02:32:29;15.33;;;4.80;;
21507;SDS011;10915;54.352;9.074;2023-04-25T02:34:55;17.13;;;4.77;;
21507;SDS011;10915;54.352;9.074;2023-04-25T02:37:23;15.43;;;4.13;;
21507;SDS011;10915;54.352;9.074;2023-04-25T02:39:49;17.13;;;4.73;;
21507;SDS011;10915;54.352;9.074;2023-04-25T02:42:15;19.20;;;4.90;;
21507;SDS011;10915;54.352;9.074;2023-04-25T02:44:40;17.07;;;4.30;;
21507;SDS011;10915;54.352;9.074;2023-04-25T02:47:06;15.07;;;4.20;;
21507;SDS011;10915;54.352;9.074;2023-04-25T02:49:32;18.73;;;4.60;;
21507;SDS011;10915;54.352;9.074;2023-04-25T02:51:57;15.87;;;4.13;;
21507;SDS011;10915;54.352;9.074;2023-04-25T02:54:23;18.47;;;4.50;;
21507;SDS011;10915;54.352;9.074;2023-04-25T02:56:49;13.57;;;3.60;;
21507;SDS011;10915;54.352;9.074;2023-04-25T02:59:14;13.07;;;3.40;;
21507;SDS011;10915;54.352;9.074;2023-04-25T03:01:40;14.77;;;3.63;;
21507;SDS011;10915;54.352;9.074;2023-04-25T03:04:06;12.13;;;3.57;;
21507;SDS011;10915;54.352;9.074;2023-04-25T03:06:31;14.27;;;3.83;;
21507;SDS011;10915;54.352;9.074;2023-04-25T03:08:57;16.77;;;4.37;;
21507;SDS011;10915;54.352;9.074;2023-04-25T03:11:25;14.97;;;3.80;;
21507;SDS011;10915;54.352;9.074;2023-04-25T03:13:51;16.03;;;4.60;;
21507;SDS011;10915;54.352;9.074;2023-04-25T03:16:16;16.10;;;3.90;;
21507;SDS011;10915;54.352;9.074;2023-04-25T03:18:42;15.90;;;4.50;;
21507;SDS011;10915;54.352;9.074;2023-04-25T03:21:08;16.50;;;4.53;;
21507;SDS011;10915;54.352;9.074;2023-04-25T03:23:33;15.70;;;4.07;;
21507;SDS011;10915;54.352;9.074;2023-04-25T03:25:59;20.33;;;4.20;;
21507;SDS011;10915;54.352;9.074;2023-04-25T03:28:25;10.47;;;3.60;;
21507;SDS011;10915;54.352;9.074;2023-04-25T03:30:51;14.10;;;4.20;;
21507;SDS011;10915;54.352;9.074;2023-04-25T03:33:16;14.70;;;4.10;;
21507;SDS011;10915;54.352;9.074;2023-04-25T03:35:42;16.23;;;4.20;;
21507;SDS011;10915;54.352;9.074;2023-04-25T03:38:08;15.87;;;4.33;;
21507;SDS011;10915;54.352;9.074;2023-04-25T03:40:33;12.93;;;3.77;;
21507;SDS011;10915;54.352;9.074;2023-04-25T03:42:59;14.53;;;5.13;;
21507;SDS011;10915;54.352;9.074;2023-04-25T03:45:25;14.93;;;4.37;;
21507;SDS011;10915;54.352;9.074;2023-04-25T03:47:50;13.73;;;4.40;;
21507;SDS011;10915;54.352;9.074;2023-04-25T03:50:16;12.90;;;4.23;;
21507;SDS011;10915;54.352;9.074;2023-04-25T03:52:42;12.97;;;3.83;;
21507;SDS011;10915;54.352;9.074;2023-04-25T03:55:08;16.30;;;4.60;;
21507;SDS011;10915;54.352;9.074;2023-04-25T03:57:34;13.70;;;3.87;;
21507;SDS011;10915;54.352;9.074;2023-04-25T03:59:59;12.73;;;3.90;;
21507;SDS011;10915;54.352;9.074;2023-04-25T04:02:25;13.63;;;4.10;;
21507;SDS011;10915;54.352;9.074;2023-04-25T04:04:51;14.00;;;3.87;;
21507;SDS011;10915;54.352;9.074;2023-04-25T04:07:16;13.77;;;3.30;;
21507;SDS011;10915;54.352;9.074;2023-04-25T04:09:42;17.07;;;3.53;;
21507;SDS011;10915;54.352;9.074;2023-04-25T04:12:07;11.13;;;3.30;;
21507;SDS011;10915;54.352;9.074;2023-04-25T04:14:33;13.67;;;4.23;;
21507;SDS011;10915;54.352;9.074;2023-04-25T04:16:59;14.80;;;4.10;;
21507;SDS011;10915;54.352;9.074;2023-04-25T04:19:25;11.60;;;3.83;;
21507;SDS011;10915;54.352;9.074;2023-04-25T04:21:50;16.27;;;3.77;;
21507;SDS011;10915;54.352;9.074;2023-04-25T04:24:16;8.80;;;3.30;;
21507;SDS011;10915;54.352;9.074;2023-04-25T04:26:42;12.60;;;3.70;;
21507;SDS011;10915;54.352;9.074;2023-04-25T04:29:09;14.03;;;3.73;;
21507;SDS011;10915;54.352;9.074;2023-04-25T04:31:35;15.43;;;4.10;;
21507;SDS011;10915;54.352;9.074;2023-04-25T04:34:01;21.60;;;5.03;;
21507;SDS011;10915;54.352;9.074;2023-04-25T04:36:28;15.37;;;4.60;;
21507;SDS011;10915;54.352;9.074;2023-04-25T04:38:54;19.53;;;4.33;;
21507;SDS011;10915;54.352;9.074;2023-04-25T04:41:21;15.53;;;4.60;;
21507;SDS011;10915;54.352;9.074;2023-04-25T04:43:47;13.50;;;3.77;;
21507;SDS011;10915;54.352;9.074;2023-04-25T04:46:13;11.63;;;4.03;;
21507;SDS011;10915;54.352;9.074;2023-04-25T04:48:39;18.47;;;4.40;;
21507;SDS011;10915;54.352;9.074;2023-04-25T04:51:05;17.30;;;4.40;;
21507;SDS011;10915;54.352;9.074;2023-04-25T04:53:31;17.17;;;4.70;;
21507;SDS011;10915;54.352;9.074;2023-04-25T04:55:57;15.47;;;3.80;;
21507;SDS011;10915;54.352;9.074;2023-04-25T04:58:23;11.63;;;3.60;;
21507;SDS011;10915;54.352;9.074;2023-04-25T05:00:48;15.67;;;4.43;;
21507;SDS011;10915;54.352;9.074;2023-04-25T05:03:15;11.23;;;3.27;;
21507;SDS011;10915;54.352;9.074;2023-04-25T05:05:41;15.20;;;2.87;;
21507;SDS011;10915;54.352;9.074;2023-04-25T05:08:06;10.80;;;2.87;;
21507;SDS011;10915;54.352;9.074;2023-04-25T05:10:32;9.63;;;2.80;;
21507;SDS011;10915;54.352;9.074;2023-04-25T05:12:58;11.47;;;3.43;;
21507;SDS011;10915;54.352;9.074;2023-04-25T05:15:23;12.00;;;2.93;;
21507;SDS011;10915;54.352;9.074;2023-04-25T05:17:49;11.50;;;3.80;;
21507;SDS011;10915;54.352;9.074;2023-04-25T05:20:15;14.57;;;4.10;;
21507;SDS011;10915;54.352;9.074;2023-04-25T05:22:41;17.53;;;3.97;;
21507;SDS011;10915;54.352;9.074;2023-04-25T05:25:07;14.33;;;4.13;;
21507;SDS011;10915;54.352;9.074;2023-04-25T05:27:34;17.93;;;4.20;;
21507;SDS011;10915;54.352;9.074;2023-04-25T05:30:00;14.30;;;3.43;;
21507;SDS011;10915;54.352;9.074;2023-04-25T05:32:26;11.27;;;3.17;;
21507;SDS011;10915;54.352;9.074;2023-04-25T05:34:51;10.20;;;3.27;;
21507;SDS011;10915;54.352;9.074;2023-04-25T05:37:17;9.53;;;3.27;;
21507;SDS011;10915;54.352;9.074;2023-04-25T05:39:42;13.17;;;3.87;;
21507;SDS011;10915;54.352;9.074;2023-04-25T05:42:08;11.93;;;3.60;;
21507;SDS011;10915;54.352;9.074;2023-04-25T05:44:34;12.63;;;3.10;;
21507;SDS011;10915;54.352;9.074;2023-04-25T05:46:59;14.40;;;3.70;;
21507;SDS011;10915;54.352;9.074;2023-04-25T05:49:25;12.43;;;3.70;;
21507;SDS011;10915;54.352;9.074;2023-04-25T05:51:51;15.10;;;4.47;;
21507;SDS011;10915;54.352;9.074;2023-04-25T05:54:16;12.67;;;3.70;;
21507;SDS011;10915;54.352;9.074;2023-04-25T05:56:42;16.33;;;3.93;;
21507;SDS011;10915;54.352;9.074;2023-04-25T05:59:08;13.80;;;3.70;;
21507;SDS011;10915;54.352;9.074;2023-04-25T06:01:33;15.83;;;3.93;;
21507;SDS011;10915;54.352;9.074;2023-04-25T06:03:59;16.33;;;4.33;;
21507;SDS011;10915;54.352;9.074;2023-04-25T06:06:24;15.40;;;4.10;;
21507;SDS011;10915;54.352;9.074;2023-04-25T06:08:51;16.93;;;4.13;;
21507;SDS011;10915;54.352;9.074;2023-04-25T06:11:17;10.73;;;3.40;;
21507;SDS011;10915;54.352;9.074;2023-04-25T06:13:42;14.60;;;3.40;;
21507;SDS011;10915;54.352;9.074;2023-04-25T06:16:08;11.87;;;3.27;;
21507;SDS011;10915;54.352;9.074;2023-04-25T06:18:34;15.93;;;3.40;;
21507;SDS011;10915;54.352;9.074;2023-04-25T06:20:59;8.60;;;2.90;;
21507;SDS011;10915;54.352;9.074;2023-04-25T06:23:25;13.53;;;3.10;;
21507;SDS011;10915;54.352;9.074;2023-04-25T06:25:51;12.27;;;3.63;;
21507;SDS011;10915;54.352;9.074;2023-04-25T06:28:16;13.60;;;3.43;;
21507;SDS011;10915;54.352;9.074;2023-04-25T06:30:42;13.23;;;3.47;;
21507;SDS011;10915;54.352;9.074;2023-04-25T06:33:07;12.07;;;3.50;;
21507;SDS011;10915;54.352;9.074;2023-04-25T06:35:33;13.43;;;3.40;;
21507;SDS011;10915;54.352;9.074;2023-04-25T06:37:59;14.93;;;4.30;;
21507;SDS011;10915;54.352;9.074;2023-04-25T06:40:25;12.40;;;2.93;;
21507;SDS011;10915;54.352;9.074;2023-04-25T06:42:51;8.80;;;2.87;;
21507;SDS011;10915;54.352;9.074;2023-04-25T06:45:16;13.07;;;2.70;;
21507;SDS011;10915;54.352;9.074;2023-04-25T06:47:42;10.13;;;2.53;;
21507;SDS011;10915;54.352;9.074;2023-04-25T06:50:08;9.50;;;2.50;;
21507;SDS011;10915;54.352;9.074;2023-04-25T06:52:33;10.27;;;3.13;;
21507;SDS011;10915;54.352;9.074;2023-04-25T06:54:59;14.77;;;3.47;;
21507;SDS011;10915;54.352;9.074;2023-04-25T06:57:25;10.40;;;3.07;;
21507;SDS011;10915;54.352;9.074;2023-04-25T06:59:50;12.13;;;3.17;;
21507;SDS011;10915;54.352;9.074;2023-04-25T07:02:16;11.40;;;3.00;;
21507;SDS011;10915;54.352;9.074;2023-04-25T07:04:42;15.67;;;3.33;;
21507;SDS011;10915;54.352;9.074;2023-04-25T07:07:07;10.20;;;3.10;;
21507;SDS011;10915;54.352;9.074;2023-04-25T07:09:33;12.27;;;3.53;;
21507;SDS011;10915;54.352;9.074;2023-04-25T07:11:59;15.93;;;3.87;;
21507;SDS011;10915;54.352;9.074;2023-04-25T07:14:26;12.10;;;3.73;;
21507;SDS011;10915;54.352;9.074;2023-04-25T07:16:52;15.50;;;3.83;;
21507;SDS011;10915;54.352;9.074;2023-04-25T07:19:17;14.50;;;3.50;;
21507;SDS011;10915;54.352;9.074;2023-04-25T07:21:43;11.30;;;3.10;;
21507;SDS011;10915;54.352;9.074;2023-04-25T07:24:09;10.83;;;2.60;;
21507;SDS011;10915;54.352;9.074;2023-04-25T07:26:34;10.10;;;2.70;;
21507;SDS011;10915;54.352;9.074;2023-04-25T07:29:00;13.13;;;3.60;;
21507;SDS011;10915;54.352;9.074;2023-04-25T07:31:25;13.57;;;3.97;;
21507;SDS011;10915;54.352;9.074;2023-04-25T07:33:52;12.33;;;3.43;;
21507;SDS011;10915;54.352;9.074;2023-04-25T07:36:17;15.80;;;3.53;;
21507;SDS011;10915;54.352;9.074;2023-04-25T07:38:43;16.63;;;3.73;;
21507;SDS011;10915;54.352;9.074;2023-04-25T07:41:08;12.13;;;3.10;;
21507;SDS011;10915;54.352;9.074;2023-04-25T07:43:34;11.50;;;3.03;;
21507;SDS011;10915;54.352;9.074;2023-04-25T07:45:59;11.43;;;2.70;;
21507;SDS011;10915;54.352;9.074;2023-04-25T07:48:25;11.67;;;2.93;;
21507;SDS011;10915;54.352;9.074;2023-04-25T07:50:51;10.90;;;3.37;;
21507;SDS011;10915;54.352;9.074;2023-04-25T07:53:16;10.07;;;3.10;;
21507;SDS011;10915;54.352;9.074;2023-04-25T07:55:43;15.63;;;3.70;;
21507;SDS011;10915;54.352;9.074;2023-04-25T07:58:09;13.13;;;4.93;;
21507;SDS011;10915;54.352;9.074;2023-04-25T08:00:36;13.20;;;3.13;;
21507;SDS011;10915;54.352;9.074;2023-04-25T08:03:01;12.73;;;2.93;;
21507;SDS011;10915;54.352;9.074;2023-04-25T08:05:27;7.90;;;2.70;;
21507;SDS011;10915;54.352;9.074;2023-04-25T08:07:53;17.17;;;3.57;;
21507;SDS011;10915;54.352;9.074;2023-04-25T08:10:19;11.53;;;2.63;;
21507;SDS011;10915;54.352;9.074;2023-04-25T08:12:45;9.03;;;2.70;;
21507;SDS011;10915;54.352;9.074;2023-04-25T08:15:11;8.20;;;2.20;;
21507;SDS011;10915;54.352;9.074;2023-04-25T08:17:38;10.73;;;2.57;;
21507;SDS011;10915;54.352;9.074;2023-04-25T08:20:04;11.17;;;2.97;;
21507;SDS011;10915;54.352;9.074;2023-04-25T08:22:30;9.47;;;2.80;;
21507;SDS011;10915;54.352;9.074;2023-04-25T08:24:56;7.03;;;2.80;;
21507;SDS011;10915;54.352;9.074;2023-04-25T08:27:22;9.77;;;2.53;;
21507;SDS011;10915;54.352;9.074;2023-04-25T08:29:48;5.30;;;1.80;;
21507;SDS011;10915;54.352;9.074;2023-04-25T08:32:14;5.90;;;1.43;;
21507;SDS011;10915;54.352;9.074;2023-04-25T08:34:40;6.07;;;1.73;;
21507;SDS011;10915;54.352;9.074;2023-04-25T08:37:07;4.33;;;1.47;;
21507;SDS011;10915;54.352;9.074;2023-04-25T08:39:34;8.00;;;1.93;;
21507;SDS011;10915;54.352;9.074;2023-04-25T08:42:04;8.47;;;1.97;;
21507;SDS011;10915;54.352;9.074;2023-04-25T08:44:33;9.90;;;2.53;;
21507;SDS011;10915;54.352;9.074;2023-04-25T08:46:59;12.43;;;3.13;;
21507;SDS011;10915;54.352;9.074;2023-04-25T08:49:27;8.63;;;2.70;;
21507;SDS011;10915;54.352;9.074;2023-04-25T08:51:54;9.30;;;2.40;;
21507;SDS011;10915;54.352;9.074;2023-04-25T08:54:24;9.03;;;2.33;;
21507;SDS011;10915;54.352;9.074;2023-04-25T08:56:54;8.87;;;2.47;;
21507;SDS011;10915;54.352;9.074;2023-04-25T08:59:22;10.57;;;2.27;;
21507;SDS011;10915;54.352;9.074;2023-04-25T09:01:49;11.33;;;2.40;;
21507;SDS011;10915;54.352;9.074;2023-04-25T09:04:15;11.10;;;2.57;;
21507;SDS011;10915;54.352;9.074;2023-04-25T09:06:40;8.03;;;2.37;;
21507;SDS011;10915;54.352;9.074;2023-04-25T09:09:07;9.10;;;1.87;;
21507;SDS011;10915;54.352;9.074;2023-04-25T09:11:34;8.07;;;2.10;;
21507;SDS011;10915;54.352;9.074;2023-04-25T09:14:11;11.10;;;2.87;;
21507;SDS011;10915;54.352;9.074;2023-04-25T09:16:56;12.37;;;2.47;;
21507;SDS011;10915;54.352;9.074;2023-04-25T09:19:31;6.90;;;1.90;;
21507;SDS011;10915;54.352;9.074;2023-04-25T09:22:00;9.00;;;2.63;;
21507;SDS011;10915;54.352;9.074;2023-04-25T09:24:38;12.90;;;2.17;;
21507;SDS011;10915;54.352;9.074;2023-04-25T09:27:20;13.43;;;2.70;;
21507;SDS011;10915;54.352;9.074;2023-04-25T09:29:50;8.00;;;2.20;;
21507;SDS011;10915;54.352;9.074;2023-04-25T09:32:23;10.60;;;2.10;;
21507;SDS011;10915;54.352;9.074;2023-04-25T09:34:50;9.53;;;2.10;;
21507;SDS011;10915;54.352;9.074;2023-04-25T09:37:21;6.80;;;2.10;;
21507;SDS011;10915;54.352;9.074;2023-04-25T09:39:47;10.20;;;2.00;;
21507;SDS011;10915;54.352;9.074;2023-04-25T09:42:14;6.83;;;1.93;;
21507;SDS011;10915;54.352;9.074;2023-04-25T09:44:42;9.13;;;2.00;;
21507;SDS011;10915;54.352;9.074;2023-04-25T09:47:09;5.77;;;1.30;;
21507;SDS011;10915;54.352;9.074;2023-04-25T09:49:38;5.80;;;1.40;;
21507;SDS011;10915;54.352;9.074;2023-04-25T09:52:06;4.10;;;1.03;;
21507;SDS011;10915;54.352;9.074;2023-04-25T09:54:32;8.13;;;2.30;;
21507;SDS011;10915;54.352;9.074;2023-04-25T09:56:57;12.90;;;5.33;;
21507;SDS011;10915;54.352;9.074;2023-04-25T09:59:35;11.53;;;4.40;;
21507;SDS011;10915;54.352;9.074;2023-04-25T10:02:05;12.23;;;3.03;;
21507;SDS011;10915;54.352;9.074;2023-04-25T10:04:33;9.53;;;2.63;;
21507;SDS011;10915;54.352;9.074;2023-04-25T10:07:01;9.67;;;2.63;;
21507;SDS011;10915;54.352;9.074;2023-04-25T10:09:30;10.97;;;2.53;;
21507;SDS011;10915;54.352;9.074;2023-04-25T10:12:00;14.40;;;3.30;;
21507;SDS011;10915;54.352;9.074;2023-04-25T10:14:26;12.07;;;3.10;;
21507;SDS011;10915;54.352;9.074;2023-04-25T10:16:53;13.00;;;2.47;;
21507;SDS011;10915;54.352;9.074;2023-04-25T10:19:20;10.50;;;2.40;;
21507;SDS011;10915;54.352;9.074;2023-04-25T10:22:23;10.47;;;2.80;;
21507;SDS011;10915;54.352;9.074;2023-04-25T10:25:02;7.13;;;2.00;;
21507;SDS011;10915;54.352;9.074;2023-04-25T10:27:31;10.60;;;2.37;;
21507;SDS011;10915;54.352;9.074;2023-04-25T10:30:15;10.40;;;2.20;;
21507;SDS011;10915;54.352;9.074;2023-04-25T10:32:41;8.53;;;2.23;;
21507;SDS011;10915;54.352;9.074;2023-04-25T10:40:29;12.27;;;2.60;;
21507;SDS011;10915;54.352;9.074;2023-04-25T10:42:55;9.77;;;2.40;;
21507;SDS011;10915;54.352;9.074;2023-04-25T10:45:21;11.93;;;2.77;;
21507;SDS011;10915;54.352;9.074;2023-04-25T10:47:47;11.10;;;2.50;;
21507;SDS011;10915;54.352;9.074;2023-04-25T10:50:16;18.63;;;3.63;;
21507;SDS011;10915;54.352;9.074;2023-04-25T10:52:42;10.53;;;2.53;;
21507;SDS011;10915;54.352;9.074;2023-04-25T10:55:09;9.07;;;1.87;;
21507;SDS011;10915;54.352;9.074;2023-04-25T10:57:39;6.37;;;1.50;;
21507;SDS011;10915;54.352;9.074;2023-04-25T11:02:58;6.33;;;1.63;;
21507;SDS011;10915;54.352;9.074;2023-04-25T11:05:31;9.27;;;2.57;;
21507;SDS011;10915;54.352;9.074;2023-04-25T11:07:58;8.17;;;2.20;;
21507;SDS011;10915;54.352;9.074;2023-04-25T11:10:27;11.23;;;2.40;;
21507;SDS011;10915;54.352;9.074;2023-04-25T11:12:55;13.40;;;2.50;;
21507;SDS011;10915;54.352;9.074;2023-04-25T11:15:21;10.60;;;3.00;;
21507;SDS011;10915;54.352;9.074;2023-04-25T11:17:47;14.00;;;2.77;;
21507;SDS011;10915;54.352;9.074;2023-04-25T11:20:13;13.93;;;3.03;;
21507;SDS011;10915;54.352;9.074;2023-04-25T11:22:39;13.23;;;3.03;;
21507;SDS011;10915;54.352;9.074;2023-04-25T11:25:08;10.53;;;2.70;;
21507;SDS011;10915;54.352;9.074;2023-04-25T11:27:48;13.23;;;2.83;;
21507;SDS011;10915;54.352;9.074;2023-04-25T11:30:17;8.13;;;2.27;;
21507;SDS011;10915;54.352;9.074;2023-04-25T11:32:44;12.67;;;2.43;;
21507;SDS011;10915;54.352;9.074;2023-04-25T11:35:10;8.63;;;2.50;;
21507;SDS011;10915;54.352;9.074;2023-04-25T11:37:36;11.13;;;2.80;;
21507;SDS011;10915;54.352;9.074;2023-04-25T11:40:04;16.17;;;2.30;;
21507;SDS011;10915;54.352;9.074;2023-04-25T11:42:36;12.77;;;2.67;;
21507;SDS011;10915;54.352;9.074;2023-04-25T11:45:08;13.07;;;3.37;;
21507;SDS011;10915;54.352;9.074;2023-04-25T11:47:34;13.63;;;3.43;;
21507;SDS011;10915;54.352;9.074;2023-04-25T11:50:00;12.50;;;2.50;;
21507;SDS011;10915;54.352;9.074;2023-04-25T11:52:42;10.30;;;2.20;;
21507;SDS011;10915;54.352;9.074;2023-04-25T11:55:19;13.83;;;2.33;;
21507;SDS011;10915;54.352;9.074;2023-04-25T11:57:46;10.67;;;2.57;;
21507;SDS011;10915;54.352;9.074;2023-04-25T12:00:16;12.47;;;3.37;;
21507;SDS011;10915;54.352;9.074;2023-04-25T12:02:54;14.07;;;2.70;;
21507;SDS011;10915;54.352;9.074;2023-04-25T12:05:23;13.57;;;3.20;;
21507;SDS011;10915;54.352;9.074;2023-04-25T12:07:50;12.30;;;3.27;;
21507;SDS011;10915;54.352;9.074;2023-04-25T12:10:16;15.63;;;3.40;;
21507;SDS011;10915;54.352;9.074;2023-04-25T12:12:44;14.40;;;3.07;;
21507;SDS011;10915;54.352;9.074;2023-04-25T12:15:32;11.20;;;3.13;;
21507;SDS011;10915;54.352;9.074;2023-04-25T12:17:58;15.63;;;2.87;;
21507;SDS011;10915;54.352;9.074;2023-04-25T12:20:26;8.40;;;2.23;;
21507;SDS011;10915;54.352;9.074;2023-04-25T12:22:52;10.03;;;2.50;;
21507;SDS011;10915;54.352;9.074;2023-04-25T12:28:10;10.47;;;2.30;;
21507;SDS011;10915;54.352;9.074;2023-04-25T12:30:55;8.80;;;2.23;;
21507;SDS011;10915;54.352;9.074;2023-04-25T12:33:23;12.83;;;2.80;;
21507;SDS011;10915;54.352;9.074;2023-04-25T12:35:49;10.73;;;2.03;;
21507;SDS011;10915;54.352;9.074;2023-04-25T12:38:25;11.33;;;2.90;;
21507;SDS011;10915;54.352;9.074;2023-04-25T12:40:52;14.33;;;2.93;;
21507;SDS011;10915;54.352;9.074;2023-04-25T12:43:18;11.07;;;2.37;;
21507;SDS011;10915;54.352;9.074;2023-04-25T12:45:44;8.27;;;2.30;;
21507;SDS011;10915;54.352;9.074;2023-04-25T12:48:12;6.10;;;1.27;;
21507;SDS011;10915;54.352;9.074;2023-04-25T12:50:38;2.67;;;1.10;;
21507;SDS011;10915;54.352;9.074;2023-04-25T12:53:03;6.33;;;1.60;;
21507;SDS011;10915;54.352;9.074;2023-04-25T12:55:29;6.67;;;2.13;;
21507;SDS011;10915;54.352;9.074;2023-04-25T12:57:55;8.93;;;3.50;;
21507;SDS011;10915;54.352;9.074;2023-04-25T13:00:20;10.30;;;2.47;;
21507;SDS011;10915;54.352;9.074;2023-04-25T13:02:46;9.80;;;2.30;;
21507;SDS011;10915;54.352;9.074;2023-04-25T13:05:12;12.33;;;2.57;;
21507;SDS011;10915;54.352;9.074;2023-04-25T13:07:38;17.33;;;2.47;;
21507;SDS011;10915;54.352;9.074;2023-04-25T13:10:04;9.20;;;2.10;;
21507;SDS011;10915;54.352;9.074;2023-04-25T13:12:30;10.27;;;2.60;;
21507;SDS011;10915;54.352;9.074;2023-04-25T13:14:56;9.27;;;2.33;;
21507;SDS011;10915;54.352;9.074;2023-04-25T13:17:22;10.97;;;2.10;;
21507;SDS011;10915;54.352;9.074;2023-04-25T13:19:47;11.57;;;2.17;;
21507;SDS011;10915;54.352;9.074;2023-04-25T13:22:13;13.20;;;2.60;;
21507;SDS011;10915;54.352;9.074;2023-04-25T13:24:40;10.33;;;2.13;;
21507;SDS011;10915;54.352;9.074;2023-04-25T13:27:05;9.43;;;2.30;;
21507;SDS011;10915;54.352;9.074;2023-04-25T13:29:31;8.60;;;2.03;;
21507;SDS011;10915;54.352;9.074;2023-04-25T13:31:59;8.50;;;2.40;;
21507;SDS011;10915;54.352;9.074;2023-04-25T13:34:25;12.13;;;3.03;;
21507;SDS011;10915;54.352;9.074;2023-04-25T13:36:51;6.87;;;2.03;;
21507;SDS011;10915;54.352;9.074;2023-04-25T13:39:17;9.00;;;2.27;;
21507;SDS011;10915;54.352;9.074;2023-04-25T13:41:42;9.00;;;2.70;;
21507;SDS011;10915;54.352;9.074;2023-04-25T13:44:08;11.20;;;2.97;;
21507;SDS011;10915;54.352;9.074;2023-04-25T13:46:35;9.27;;;2.23;;
21507;SDS011;10915;54.352;9.074;2023-04-25T13:49:02;10.87;;;2.33;;
21507;SDS011;10915;54.352;9.074;2023-04-25T13:51:28;11.53;;;2.73;;
21507;SDS011;10915;54.352;9.074;2023-04-25T13:53:54;14.23;;;3.90;;
21507;SDS011;10915;54.352;9.074;2023-04-25T13:56:20;10.07;;;2.90;;
21507;SDS011;10915;54.352;9.074;2023-04-25T13:58:47;14.03;;;2.83;;
21507;SDS011;10915;54.352;9.074;2023-04-25T14:01:12;12.67;;;2.80;;
21507;SDS011;10915;54.352;9.074;2023-04-25T14:03:38;11.27;;;2.17;;
21507;SDS011;10915;54.352;9.074;2023-04-25T14:06:04;11.53;;;2.50;;
21507;SDS011;10915;54.352;9.074;2023-04-25T14:08:30;11.03;;;2.80;;
21507;SDS011;10915;54.352;9.074;2023-04-25T14:10:56;9.03;;;2.23;;
21507;SDS011;10915;54.352;9.074;2023-04-25T14:13:22;12.63;;;2.50;;
21507;SDS011;10915;54.352;9.074;2023-04-25T14:15:48;15.90;;;3.07;;
21507;SDS011;10915;54.352;9.074;2023-04-25T14:18:15;11.40;;;2.50;;
21507;SDS011;10915;54.352;9.074;2023-04-25T14:20:41;10.17;;;2.97;;
21507;SDS011;10915;54.352;9.074;2023-04-25T14:23:06;16.13;;;2.83;;
21507;SDS011;10915;54.352;9.074;2023-04-25T14:25:32;14.60;;;2.87;;
21507;SDS011;10915;54.352;9.074;2023-04-25T14:27:57;8.47;;;2.37;;
21507;SDS011;10915;54.352;9.074;2023-04-25T14:30:23;12.50;;;2.20;;
21507;SDS011;10915;54.352;9.074;2023-04-25T14:32:49;11.00;;;2.17;;
21507;SDS011;10915;54.352;9.074;2023-04-25T14:35:15;6.37;;;1.87;;
21507;SDS011;10915;54.352;9.074;2023-04-25T14:37:40;9.53;;;1.80;;
21507;SDS011;10915;54.352;9.074;2023-04-25T14:40:06;7.03;;;1.73;;
21507;SDS011;10915;54.352;9.074;2023-04-25T14:42:35;4.47;;;1.33;;
21507;SDS011;10915;54.352;9.074;2023-04-25T14:45:05;9.40;;;1.97;;
21507;SDS011;10915;54.352;9.074;2023-04-25T14:47:32;7.40;;;1.77;;